Time;durP1;ratioP1;P1;durP2;ratioP2;P2;SDS_P1;SDS_P2;PMS_P1;PMS_P2;Temp;Humidity;BMP_temperature;BMP_pressure;BME280_temperature;BME280_humidity;BME280_pressure;Samples;Min_cycle;Max_cycle;Signal;HPM_P1;HPM_P2
2023/12/20 00:00:39;;;;;;;4.35;1.77;;;;;;;;;;2026697;29;20060;-59
2023/12/20 00:01:40;;;;;;;1.77;1.13;;;;;;;;;;2027068;29;20044;-59
2023/12/20 00:02:44;;;;;;;3.42;1.90;;;;;;;;;;2026739;29;20040;-60
2023/12/20 00:03:45;;;;;;;2.60;1.40;;;;;;;;;;2018656;29;20044;-60
2023/12/20 00:04:46;;;;;;;2.92;1.85;;;;;;;;;;2018099;29;20044;-60
2023/12/20 00:05:47;;;;;;;2.92;1.50;;;;;;;;;;2018430;29;20494;-60
2023/12/20 00:06:48;;;;;;;3.13;1.58;;;;;;;;;;2018288;29;20057;-60
2023/12/20 00:07:48;;;;;;;2.53;1.17;;;;;;;;;;2026443;29;20048;-60
2023/12/20 00:08:49;;;;;;;3.40;1.80;;;;;;;;;;2026988;29;20055;-60
2023/12/20 00:09:50;;;;;;;2.88;1.83;;;;;;;;;;2026045;29;20477;-60
2023/12/20 00:10:50;;;;;;;3.35;1.48;;;;;;;;;;2026807;29;20041;-59
2023/12/20 00:11:51;;;;;;;2.58;1.40;;;;;;;;;;2027002;29;20040;-60
2023/12/20 00:12:52;;;;;;;4.70;2.20;;;;;;;;;;2026107;29;20052;-59
2023/12/20 00:13:53;;;;;;;2.60;1.40;;;;;;;;;;2026913;29;20043;-59
2023/12/20 00:14:53;;;;;;;3.90;1.92;;;;;;;;;;2026400;29;20088;-60
2023/12/20 00:15:54;;;;;;;3.10;1.38;;;;;;;;;;2026595;29;20047;-60
2023/12/20 00:16:55;;;;;;;4.45;2.10;;;;;;;;;;2026875;29;20496;-60
2023/12/20 00:17:55;;;;;;;4.82;1.63;;;;;;;;;;2026092;29;20045;-60
2023/12/20 00:18:56;;;;;;;2.22;1.42;;;;;;;;;;2026822;29;20040;-60
2023/12/20 00:19:57;;;;;;;4.60;1.65;;;;;;;;;;2026849;29;20032;-60
2023/12/20 00:20:57;;;;;;;3.03;1.63;;;;;;;;;;2026062;29;20049;-59
2023/12/20 00:21:59;;;;;;;2.63;1.50;;;;;;;;;;2027150;29;20048;-60
2023/12/20 00:23:00;;;;;;;3.42;1.90;;;;;;;;;;2026953;29;20063;-61
2023/12/20 00:24:01;;;;;;;3.15;1.70;;;;;;;;;;2025397;29;20103;-60
2023/12/20 00:25:01;;;;;;;3.30;1.92;;;;;;;;;;2027028;29;20469;-62
2023/12/20 00:26:02;;;;;;;4.93;2.00;;;;;;;;;;2027349;29;20037;-59
2023/12/20 00:27:03;;;;;;;3.78;1.92;;;;;;;;;;2026666;29;20044;-61
2023/12/20 00:28:04;;;;;;;4.30;1.70;;;;;;;;;;2027390;29;20127;-61
2023/12/20 00:29:04;;;;;;;3.60;1.75;;;;;;;;;;2027496;29;20205;-60
2023/12/20 00:30:05;;;;;;;2.70;1.65;;;;;;;;;;2027175;29;20037;-60
2023/12/20 00:31:06;;;;;;;4.43;1.25;;;;;;;;;;2026908;29;20040;-60
2023/12/20 00:32:07;;;;;;;3.72;1.92;;;;;;;;;;2026618;29;20400;-59
2023/12/20 00:33:08;;;;;;;4.03;1.52;;;;;;;;;;2026203;29;20049;-59
2023/12/20 00:34:08;;;;;;;6.78;2.05;;;;;;;;;;2026694;29;20048;-59
2023/12/20 00:35:09;;;;;;;3.95;1.60;;;;;;;;;;2026553;29;20051;-59
2023/12/20 00:36:10;;;;;;;3.75;1.85;;;;;;;;;;2026070;29;20472;-60
2023/12/20 00:37:10;;;;;;;3.88;1.73;;;;;;;;;;2026737;29;20037;-59
2023/12/20 00:38:11;;;;;;;4.05;1.67;;;;;;;;;;2026597;29;20128;-59
2023/12/20 00:39:12;;;;;;;4.13;2.03;;;;;;;;;;2026463;29;20056;-59
2023/12/20 00:40:13;;;;;;;1.60;1.00;;;;;;;;;;2027047;29;20041;-59
2023/12/20 00:41:13;;;;;;;4.70;1.90;;;;;;;;;;2026386;29;20192;-59
2023/12/20 00:42:14;;;;;;;3.78;1.60;;;;;;;;;;2026046;29;20045;-60
2023/12/20 00:43:15;;;;;;;2.90;1.55;;;;;;;;;;2025737;29;20405;-59
2023/12/20 00:44:16;;;;;;;3.90;1.73;;;;;;;;;;2026811;29;20068;-60
2023/12/20 00:45:16;;;;;;;1.90;1.33;;;;;;;;;;2026430;29;20032;-59
2023/12/20 00:46:17;;;;;;;4.53;2.05;;;;;;;;;;2026108;29;20477;-59
2023/12/20 00:47:18;;;;;;;3.70;1.75;;;;;;;;;;2026857;29;20457;-59
2023/12/20 00:48:18;;;;;;;2.33;0.88;;;;;;;;;;2025791;29;20048;-59
2023/12/20 00:49:19;;;;;;;2.85;1.25;;;;;;;;;;2026040;29;20084;-59
2023/12/20 00:50:21;;;;;;;3.30;1.92;;;;;;;;;;2026489;29;20039;-59
2023/12/20 00:51:22;;;;;;;3.10;1.65;;;;;;;;;;2026345;29;20126;-59
2023/12/20 00:52:23;;;;;;;5.82;2.20;;;;;;;;;;2026278;29;20579;-60
2023/12/20 00:53:24;;;;;;;3.33;1.90;;;;;;;;;;2026698;29;20051;-59
2023/12/20 00:54:25;;;;;;;2.70;1.33;;;;;;;;;;2026885;29;20032;-59
2023/12/20 00:55:26;;;;;;;1.95;1.00;;;;;;;;;;2026011;29;20051;-59
2023/12/20 00:56:26;;;;;;;4.53;1.65;;;;;;;;;;2026311;29;20037;-59
2023/12/20 00:57:27;;;;;;;4.63;1.77;;;;;;;;;;2026562;29;20445;-60
2023/12/20 00:58:28;;;;;;;4.55;2.17;;;;;;;;;;2025694;29;20040;-60
2023/12/20 00:59:29;;;;;;;3.42;1.73;;;;;;;;;;2018015;29;20048;-59
2023/12/20 01:00:29;;;;;;;3.35;1.85;;;;;;;;;;2018159;29;20128;-59
2023/12/20 01:01:32;;;;;;;2.58;1.50;;;;;;;;;;2026328;29;20036;-59
2023/12/20 01:02:33;;;;;;;3.90;1.80;;;;;;;;;;2017501;29;20045;-60
2023/12/20 01:03:34;;;;;;;2.78;1.55;;;;;;;;;;2018487;29;20053;-59
2023/12/20 01:04:35;;;;;;;3.65;1.85;;;;;;;;;;2026219;29;20063;-59
2023/12/20 01:05:35;;;;;;;3.60;1.80;;;;;;;;;;2026745;29;20044;-59
2023/12/20 01:06:36;;;;;;;3.50;2.38;;;;;;;;;;2025654;29;20473;-59
2023/12/20 01:07:37;;;;;;;3.58;1.52;;;;;;;;;;2029262;29;20040;-60
2023/12/20 01:08:37;;;;;;;5.38;1.80;;;;;;;;;;2017965;29;20049;-59
2023/12/20 01:09:38;;;;;;;3.53;1.80;;;;;;;;;;2017677;29;20049;-59
2023/12/20 01:10:39;;;;;;;2.95;1.65;;;;;;;;;;2026420;29;20044;-60
2023/12/20 01:11:40;;;;;;;4.25;1.95;;;;;;;;;;2026330;29;20425;-59
2023/12/20 01:12:40;;;;;;;2.65;1.30;;;;;;;;;;2026468;29;20036;-59
2023/12/20 01:13:41;;;;;;;2.78;1.40;;;;;;;;;;2026183;29;20037;-59
2023/12/20 01:14:42;;;;;;;3.33;1.70;;;;;;;;;;2026300;29;20047;-59
2023/12/20 01:15:43;;;;;;;3.60;1.65;;;;;;;;;;2026390;29;20048;-59
2023/12/20 01:16:43;;;;;;;3.08;1.52;;;;;;;;;;2026652;29;20044;-59
2023/12/20 01:17:44;;;;;;;3.28;1.70;;;;;;;;;;2026215;29;20033;-59
2023/12/20 01:18:45;;;;;;;3.63;1.50;;;;;;;;;;2026534;29;20059;-59
2023/12/20 01:19:46;;;;;;;3.58;1.88;;;;;;;;;;2026157;29;20385;-59
2023/12/20 01:20:46;;;;;;;2.88;1.40;;;;;;;;;;2025626;29;20080;-59
2023/12/20 01:21:47;;;;;;;1.92;1.02;;;;;;;;;;2026369;29;20362;-59
2023/12/20 01:22:48;;;;;;;1.60;1.00;;;;;;;;;;2025792;29;20059;-59
2023/12/20 01:23:48;;;;;;;3.05;1.42;;;;;;;;;;2025551;29;20118;-59
2023/12/20 01:24:49;;;;;;;2.28;1.20;;;;;;;;;;2026274;29;20044;-59
2023/12/20 01:25:50;;;;;;;3.10;1.52;;;;;;;;;;2026517;29;20032;-59
2023/12/20 01:26:51;;;;;;;2.67;1.50;;;;;;;;;;2025893;29;20629;-59
2023/12/20 01:27:51;;;;;;;2.63;1.70;;;;;;;;;;2026345;29;20433;-59
2023/12/20 01:28:52;;;;;;;2.30;1.33;;;;;;;;;;2026355;29;20048;-59
2023/12/20 01:29:53;;;;;;;3.17;1.50;;;;;;;;;;2026496;29;20043;-60
2023/12/20 01:30:53;;;;;;;1.75;0.93;;;;;;;;;;2026304;29;20041;-59
2023/12/20 01:31:54;;;;;;;3.55;1.77;;;;;;;;;;2026066;29;20064;-59
2023/12/20 01:32:55;;;;;;;2.85;1.73;;;;;;;;;;2026439;29;20033;-59
2023/12/20 01:33:56;;;;;;;2.63;1.35;;;;;;;;;;2026361;29;20044;-59
2023/12/20 01:34:56;;;;;;;2.72;1.40;;;;;;;;;;2025896;29;20441;-59
2023/12/20 01:35:57;;;;;;;2.85;1.45;;;;;;;;;;2026478;29;20035;-59
2023/12/20 01:36:58;;;;;;;2.42;1.50;;;;;;;;;;2026293;29;20041;-60
2023/12/20 01:37:58;;;;;;;3.28;1.50;;;;;;;;;;2026355;29;20040;-59
2023/12/20 01:38:59;;;;;;;3.35;1.70;;;;;;;;;;2025780;29;20461;-59
2023/12/20 01:40:00;;;;;;;3.00;1.33;;;;;;;;;;2025757;29;20057;-59
2023/12/20 01:41:01;;;;;;;2.50;1.40;;;;;;;;;;2025583;29;20048;-59
2023/12/20 01:42:02;;;;;;;2.28;1.05;;;;;;;;;;2025531;29;20048;-59
2023/12/20 01:43:06;;;;;;;2.65;1.50;;;;;;;;;;2026202;29;20035;-59
2023/12/20 01:44:06;;;;;;;2.42;1.35;;;;;;;;;;2025455;29;20049;-59
2023/12/20 01:45:07;;;;;;;3.58;1.23;;;;;;;;;;2025549;29;20040;-59
2023/12/20 01:46:08;;;;;;;2.78;1.05;;;;;;;;;;2026268;29;20375;-59
2023/12/20 01:47:09;;;;;;;3.70;1.45;;;;;;;;;;2026279;29;20041;-59
2023/12/20 01:48:10;;;;;;;2.90;1.02;;;;;;;;;;2025654;29;20056;-59
2023/12/20 01:49:11;;;;;;;2.90;1.60;;;;;;;;;;2024932;29;20519;-59
2023/12/20 01:50:12;;;;;;;2.92;1.50;;;;;;;;;;2017617;29;20060;-59
2023/12/20 01:51:12;;;;;;;3.38;1.83;;;;;;;;;;2017968;29;20045;-59
2023/12/20 01:52:13;;;;;;;2.20;1.25;;;;;;;;;;2025530;29;20048;-59
2023/12/20 01:53:14;;;;;;;2.20;1.10;;;;;;;;;;2017900;29;20128;-59
2023/12/20 01:54:15;;;;;;;2.58;1.50;;;;;;;;;;2017980;29;20037;-59
2023/12/20 01:55:15;;;;;;;2.90;1.58;;;;;;;;;;2025472;29;20515;-59
2023/12/20 01:56:16;;;;;;;2.80;1.67;;;;;;;;;;2025298;29;20131;-59
2023/12/20 01:57:17;;;;;;;2.55;1.35;;;;;;;;;;2025534;29;20044;-58
2023/12/20 01:58:18;;;;;;;2.08;1.08;;;;;;;;;;2025451;29;20044;-59
2023/12/20 01:59:19;;;;;;;2.92;1.60;;;;;;;;;;2025663;29;20384;-60
2023/12/20 02:00:23;;;;;;;2.38;1.27;;;;;;;;;;2017615;29;20049;-59
2023/12/20 02:01:24;;;;;;;4.07;1.80;;;;;;;;;;2017991;29;20410;-60
2023/12/20 02:02:25;;;;;;;3.38;1.70;;;;;;;;;;2025568;29;20049;-59
2023/12/20 02:03:26;;;;;;;2.40;1.33;;;;;;;;;;2025782;29;20041;-59
2023/12/20 02:04:26;;;;;;;3.63;1.60;;;;;;;;;;2017883;29;20397;-59
2023/12/20 02:05:27;;;;;;;2.50;1.50;;;;;;;;;;2016933;29;20056;-59
2023/12/20 02:06:31;;;;;;;3.03;1.50;;;;;;;;;;2025727;29;20036;-60
2023/12/20 02:07:32;;;;;;;3.50;1.17;;;;;;;;;;2025838;29;20033;-59
2023/12/20 02:08:32;;;;;;;2.72;1.40;;;;;;;;;;2025420;29;20489;-59
2023/12/20 02:09:33;;;;;;;2.80;1.67;;;;;;;;;;2026247;29;20031;-59
2023/12/20 02:10:34;;;;;;;4.55;1.52;;;;;;;;;;2025442;29;20049;-59
2023/12/20 02:11:35;;;;;;;2.60;1.30;;;;;;;;;;2017894;29;20036;-59
2023/12/20 02:12:36;;;;;;;2.13;1.40;;;;;;;;;;2017727;29;20048;-59
2023/12/20 02:13:36;;;;;;;2.92;1.27;;;;;;;;;;2025728;29;20397;-60
2023/12/20 02:14:37;;;;;;;2.75;1.35;;;;;;;;;;2025953;29;20083;-59
2023/12/20 02:15:38;;;;;;;4.10;1.58;;;;;;;;;;2026311;29;20037;-60
2023/12/20 02:16:39;;;;;;;2.90;1.60;;;;;;;;;;2026381;29;20064;-60
2023/12/20 02:17:39;;;;;;;1.98;0.98;;;;;;;;;;2025955;29;20404;-60
2023/12/20 02:18:40;;;;;;;3.05;1.52;;;;;;;;;;2024986;29;20083;-59
2023/12/20 02:19:41;;;;;;;3.15;1.73;;;;;;;;;;2024633;29;20056;-60
2023/12/20 02:20:42;;;;;;;2.40;1.40;;;;;;;;;;2025379;29;20489;-60
2023/12/20 02:21:42;;;;;;;3.58;1.70;;;;;;;;;;2026790;29;20068;-60
2023/12/20 02:22:43;;;;;;;2.83;1.30;;;;;;;;;;2027836;29;20064;-60
2023/12/20 02:23:44;;;;;;;2.38;1.30;;;;;;;;;;2026031;29;20464;-60
2023/12/20 02:24:44;;;;;;;2.65;1.50;;;;;;;;;;2026905;29;20063;-60
2023/12/20 02:25:45;;;;;;;1.60;1.00;;;;;;;;;;2027478;29;20040;-60
2023/12/20 02:26:46;;;;;;;3.05;1.70;;;;;;;;;;2027926;29;20084;-60
2023/12/20 02:27:47;;;;;;;2.95;1.60;;;;;;;;;;2027122;29;20057;-59
2023/12/20 02:28:47;;;;;;;3.40;1.60;;;;;;;;;;2027807;29;20045;-59
2023/12/20 02:29:48;;;;;;;2.67;1.30;;;;;;;;;;2027481;29;20044;-59
2023/12/20 02:30:49;;;;;;;4.75;1.52;;;;;;;;;;2027180;29;20033;-60
2023/12/20 02:31:50;;;;;;;2.63;1.30;;;;;;;;;;2026797;29;20085;-60
2023/12/20 02:32:50;;;;;;;3.13;1.67;;;;;;;;;;2027581;29;20044;-59
2023/12/20 02:33:51;;;;;;;3.35;1.50;;;;;;;;;;2026854;29;20417;-60
2023/12/20 02:34:52;;;;;;;2.35;1.42;;;;;;;;;;2027759;29;20041;-59
2023/12/20 02:35:53;;;;;;;2.35;1.30;;;;;;;;;;2027703;29;20039;-59
2023/12/20 02:36:53;;;;;;;2.75;1.42;;;;;;;;;;2026755;29;20076;-60
2023/12/20 02:37:54;;;;;;;2.80;1.40;;;;;;;;;;2026551;29;20055;-60
2023/12/20 02:38:55;;;;;;;3.97;1.50;;;;;;;;;;2026706;29;20053;-60
2023/12/20 02:39:55;;;;;;;2.13;1.08;;;;;;;;;;2027127;29;20370;-59
2023/12/20 02:40:56;;;;;;;3.92;1.77;;;;;;;;;;2027312;29;20047;-59
2023/12/20 02:41:57;;;;;;;2.70;1.30;;;;;;;;;;2027580;29;20044;-59
2023/12/20 02:42:57;;;;;;;2.75;1.30;;;;;;;;;;2027640;29;20048;-59
2023/12/20 02:43:58;;;;;;;2.75;1.35;;;;;;;;;;2026522;29;20078;-59
2023/12/20 02:44:59;;;;;;;3.20;1.42;;;;;;;;;;2026864;29;20049;-59
2023/12/20 02:46:00;;;;;;;2.28;1.30;;;;;;;;;;2026480;29;20507;-60
2023/12/20 02:47:00;;;;;;;2.63;1.60;;;;;;;;;;2027577;29;20041;-60
2023/12/20 02:48:01;;;;;;;2.08;1.30;;;;;;;;;;2027058;29;20053;-60
2023/12/20 02:49:02;;;;;;;3.65;1.95;;;;;;;;;;2026688;29;20045;-59
2023/12/20 02:50:03;;;;;;;2.33;1.20;;;;;;;;;;2027517;29;20472;-60
2023/12/20 02:51:03;;;;;;;4.18;1.50;;;;;;;;;;2027467;29;20040;-59
2023/12/20 02:52:04;;;;;;;1.77;1.08;;;;;;;;;;2027204;29;20178;-60
2023/12/20 02:53:05;;;;;;;3.90;1.65;;;;;;;;;;2026994;29;20061;-59
2023/12/20 02:54:06;;;;;;;2.22;1.10;;;;;;;;;;2027413;29;20036;-59
2023/12/20 02:55:06;;;;;;;2.78;1.55;;;;;;;;;;2027400;29;20527;-60
2023/12/20 02:56:07;;;;;;;2.45;1.35;;;;;;;;;;2027682;29;20453;-60
2023/12/20 02:57:08;;;;;;;4.05;1.70;;;;;;;;;;2026413;29;20048;-59
2023/12/20 02:58:09;;;;;;;3.60;1.70;;;;;;;;;;2027277;29;20401;-59
2023/12/20 02:59:09;;;;;;;2.75;1.23;;;;;;;;;;2026719;29;20041;-59
2023/12/20 03:00:10;;;;;;;2.22;1.33;;;;;;;;;;2027404;29;20036;-59
2023/12/20 03:01:11;;;;;;;2.90;1.50;;;;;;;;;;2027389;29;20048;-59
2023/12/20 03:02:12;;;;;;;2.58;1.10;;;;;;;;;;2026750;29;20071;-59
2023/12/20 03:03:12;;;;;;;2.63;1.42;;;;;;;;;;2027409;29;20399;-59
2023/12/20 03:04:13;;;;;;;4.72;1.30;;;;;;;;;;2026883;29;20048;-59
2023/12/20 03:05:14;;;;;;;3.15;1.23;;;;;;;;;;2026472;29;20055;-58
2023/12/20 03:06:18;;;;;;;1.90;1.15;;;;;;;;;;2027208;29;20045;-59
2023/12/20 03:07:19;;;;;;;3.08;1.63;;;;;;;;;;2027352;29;20393;-58
2023/12/20 03:08:19;;;;;;;2.95;1.70;;;;;;;;;;2027411;29;20035;-58
2023/12/20 03:09:20;;;;;;;2.22;1.05;;;;;;;;;;2027687;29;20036;-58
2023/12/20 03:10:21;;;;;;;2.42;1.23;;;;;;;;;;2026655;29;20044;-57
2023/12/20 03:11:21;;;;;;;2.47;1.58;;;;;;;;;;2027185;29;20382;-58
2023/12/20 03:12:22;;;;;;;3.08;1.35;;;;;;;;;;2027073;29;20037;-59
2023/12/20 03:13:23;;;;;;;2.97;1.70;;;;;;;;;;2026630;29;20429;-58
2023/12/20 03:14:24;;;;;;;2.90;1.90;;;;;;;;;;2027453;29;20033;-59
2023/12/20 03:15:24;;;;;;;3.63;1.88;;;;;;;;;;2027183;29;20060;-58
2023/12/20 03:16:25;;;;;;;2.22;1.40;;;;;;;;;;2027158;29;20043;-59
2023/12/20 03:17:26;;;;;;;2.58;1.60;;;;;;;;;;2027305;29;20181;-58
2023/12/20 03:18:28;;;;;;;4.30;1.55;;;;;;;;;;2027244;29;20033;-58
2023/12/20 03:19:29;;;;;;;3.75;1.90;;;;;;;;;;2026610;29;20500;-58
2023/12/20 03:20:33;;;;;;;3.13;1.75;;;;;;;;;;2018459;29;20044;-58
2023/12/20 03:21:34;;;;;;;5.18;1.85;;;;;;;;;;2019249;29;20049;-57
2023/12/20 03:22:35;;;;;;;3.05;1.88;;;;;;;;;;2026598;29;20052;-58
2023/12/20 03:23:36;;;;;;;4.68;2.40;;;;;;;;;;2027174;29;20416;-58
2023/12/20 03:24:36;;;;;;;4.97;1.85;;;;;;;;;;2027154;29;20054;-58
2023/12/20 03:25:37;;;;;;;4.07;2.22;;;;;;;;;;2026111;29;20056;-58
2023/12/20 03:26:38;;;;;;;3.50;1.83;;;;;;;;;;2027286;29;20037;-58
2023/12/20 03:27:38;;;;;;;3.40;1.85;;;;;;;;;;2026713;29;20500;-57
2023/12/20 03:28:39;;;;;;;4.53;2.15;;;;;;;;;;2026705;29;20056;-57
2023/12/20 03:29:40;;;;;;;3.25;1.95;;;;;;;;;;2026374;29;20044;-58
2023/12/20 03:30:41;;;;;;;4.05;2.28;;;;;;;;;;2027076;29;20036;-59
2023/12/20 03:31:41;;;;;;;4.30;2.40;;;;;;;;;;2027321;29;20037;-58
2023/12/20 03:32:42;;;;;;;4.75;2.25;;;;;;;;;;2027024;29;20461;-58
2023/12/20 03:33:43;;;;;;;2.35;1.67;;;;;;;;;;2026798;29;20053;-58
2023/12/20 03:34:43;;;;;;;4.85;2.20;;;;;;;;;;2026488;29;20051;-59
2023/12/20 03:35:44;;;;;;;3.63;2.17;;;;;;;;;;2026954;29;20077;-59
2023/12/20 03:36:47;;;;;;;4.15;2.33;;;;;;;;;;2026386;29;20100;-58
2023/12/20 03:37:48;;;;;;;4.93;2.00;;;;;;;;;;2026570;29;20496;-58
2023/12/20 03:38:49;;;;;;;5.20;1.52;;;;;;;;;;2027205;29;20052;-58
2023/12/20 03:39:49;;;;;;;4.07;2.10;;;;;;;;;;2027180;29;20033;-58
2023/12/20 03:40:50;;;;;;;2.97;1.80;;;;;;;;;;2026916;29;20044;-59
2023/12/20 03:41:51;;;;;;;3.70;2.08;;;;;;;;;;2026928;29;20378;-59
2023/12/20 03:42:51;;;;;;;3.33;1.98;;;;;;;;;;2026912;29;20126;-59
2023/12/20 03:43:52;;;;;;;4.53;2.20;;;;;;;;;;2026269;29;20052;-58
2023/12/20 03:44:53;;;;;;;4.50;2.45;;;;;;;;;;2027261;29;20044;-59
2023/12/20 03:45:54;;;;;;;3.13;1.92;;;;;;;;;;2026320;29;20401;-59
2023/12/20 03:46:54;;;;;;;3.55;1.70;;;;;;;;;;2026285;29;20049;-59
2023/12/20 03:47:56;;;;;;;3.35;1.85;;;;;;;;;;2026846;29;20041;-59
2023/12/20 03:48:57;;;;;;;4.95;2.70;;;;;;;;;;2026861;29;20032;-59
2023/12/20 03:49:57;;;;;;;4.97;2.75;;;;;;;;;;2027181;29;20040;-59
2023/12/20 03:50:58;;;;;;;4.78;2.50;;;;;;;;;;2026320;29;20390;-59
2023/12/20 03:51:59;;;;;;;5.60;1.80;;;;;;;;;;2027005;29;20128;-59
2023/12/20 03:52:59;;;;;;;4.93;2.70;;;;;;;;;;2026292;29;20123;-59
2023/12/20 03:54:00;;;;;;;5.18;3.20;;;;;;;;;;2027036;29;20044;-59
2023/12/20 03:55:01;;;;;;;4.40;2.13;;;;;;;;;;2018514;29;20037;-59
2023/12/20 03:56:02;;;;;;;5.07;2.67;;;;;;;;;;2018813;29;20041;-59
2023/12/20 03:57:03;;;;;;;6.70;2.60;;;;;;;;;;2026875;29;20052;-59
2023/12/20 03:58:03;;;;;;;4.15;1.75;;;;;;;;;;2026925;29;20044;-59
2023/12/20 03:59:04;;;;;;;5.43;2.95;;;;;;;;;;2026781;29;20048;-60
2023/12/20 04:00:09;;;;;;;5.20;3.47;;;;;;;;;;2025924;29;20044;-59
2023/12/20 04:01:12;;;;;;;4.43;2.63;;;;;;;;;;2026222;29;20048;-59
2023/12/20 04:02:13;;;;;;;3.22;1.80;;;;;;;;;;2026421;29;20037;-60
2023/12/20 04:03:14;;;;;;;3.35;2.38;;;;;;;;;;2026939;29;20175;-60
2023/12/20 04:04:14;;;;;;;6.60;2.97;;;;;;;;;;2027078;29;20045;-64
2023/12/20 04:05:15;;;;;;;5.63;2.40;;;;;;;;;;2027096;29;20040;-60
2023/12/20 04:06:17;;;;;;;6.00;2.60;;;;;;;;;;2027067;29;20036;-60
2023/12/20 04:07:18;;;;;;;6.50;2.78;;;;;;;;;;2026790;29;20075;-60
2023/12/20 04:08:18;;;;;;;4.88;2.72;;;;;;;;;;2026954;29;20043;-60
2023/12/20 04:09:19;;;;;;;3.92;2.10;;;;;;;;;;2026677;29;20032;-60
2023/12/20 04:10:20;;;;;;;5.15;3.10;;;;;;;;;;2018532;29;20033;-60
2023/12/20 04:11:20;;;;;;;6.53;2.80;;;;;;;;;;2018959;29;20040;-60
2023/12/20 04:12:21;;;;;;;5.72;2.95;;;;;;;;;;2026496;29;20396;-61
2023/12/20 04:13:22;;;;;;;6.40;3.50;;;;;;;;;;2026954;29;20037;-60
2023/12/20 04:14:24;;;;;;;4.40;2.60;;;;;;;;;;2026663;29;20068;-61
2023/12/20 04:15:25;;;;;;;6.75;2.80;;;;;;;;;;2027051;29;20032;-60
2023/12/20 04:16:25;;;;;;;4.53;2.72;;;;;;;;;;2026564;29;20103;-61
2023/12/20 04:17:26;;;;;;;4.43;2.40;;;;;;;;;;2026351;29;20393;-60
2023/12/20 04:18:28;;;;;;;6.57;3.20;;;;;;;;;;2026863;29;20033;-60
2023/12/20 04:19:28;;;;;;;5.70;3.08;;;;;;;;;;2026791;29;20063;-60
2023/12/20 04:20:29;;;;;;;4.60;2.80;;;;;;;;;;2026672;29;20032;-61
2023/12/20 04:21:30;;;;;;;6.05;3.47;;;;;;;;;;2026968;29;20036;-61
2023/12/20 04:22:30;;;;;;;4.82;2.42;;;;;;;;;;2026144;29;20071;-61
2023/12/20 04:23:31;;;;;;;5.28;2.83;;;;;;;;;;2026142;29;20041;-60
2023/12/20 04:24:32;;;;;;;5.53;2.47;;;;;;;;;;2026832;29;20040;-60
2023/12/20 04:25:32;;;;;;;7.07;2.72;;;;;;;;;;2026152;29;20511;-60
2023/12/20 04:26:33;;;;;;;5.72;3.05;;;;;;;;;;2026862;29;20036;-60
2023/12/20 04:27:34;;;;;;;7.32;4.05;;;;;;;;;;2025721;29;20044;-60
2023/12/20 04:28:35;;;;;;;5.90;3.67;;;;;;;;;;2026864;29;20044;-60
2023/12/20 04:29:35;;;;;;;6.30;3.63;;;;;;;;;;2026028;29;20099;-60
2023/12/20 04:30:36;;;;;;;6.43;2.95;;;;;;;;;;2026943;29;20056;-65
2023/12/20 04:31:37;;;;;;;6.45;3.90;;;;;;;;;;2026567;29;20461;-60
2023/12/20 04:32:37;;;;;;;4.82;2.72;;;;;;;;;;2026700;29;20044;-61
2023/12/20 04:33:38;;;;;;;8.38;4.47;;;;;;;;;;2025995;29;20067;-61
2023/12/20 04:34:39;;;;;;;10.02;3.92;;;;;;;;;;2026277;29;20060;-61
2023/12/20 04:35:40;;;;;;;6.82;4.25;;;;;;;;;;2026567;29;20044;-61
2023/12/20 04:36:41;;;;;;;6.00;3.75;;;;;;;;;;2026908;29;20453;-61
2023/12/20 04:37:42;;;;;;;5.65;3.53;;;;;;;;;;2026948;29;20040;-62
2023/12/20 04:38:42;;;;;;;8.55;3.50;;;;;;;;;;2026966;29;20048;-64
2023/12/20 04:39:43;;;;;;;9.02;4.63;;;;;;;;;;2027267;29;20046;-62
2023/12/20 04:40:44;;;;;;;7.13;3.63;;;;;;;;;;2027540;29;20100;-63
2023/12/20 04:41:45;;;;;;;7.78;4.38;;;;;;;;;;2026507;29;20075;-63
2023/12/20 04:42:45;;;;;;;7.88;3.92;;;;;;;;;;2027340;29;20457;-60
2023/12/20 04:43:46;;;;;;;5.82;3.33;;;;;;;;;;2027579;29;20041;-63
2023/12/20 04:44:47;;;;;;;8.32;4.95;;;;;;;;;;2026608;29;20036;-61
2023/12/20 04:45:47;;;;;;;7.15;3.90;;;;;;;;;;2026789;29;20153;-61
2023/12/20 04:46:48;;;;;;;7.82;4.07;;;;;;;;;;2026750;29;20449;-61
2023/12/20 04:47:49;;;;;;;9.77;5.55;;;;;;;;;;2026171;29;20397;-61
2023/12/20 04:48:50;;;;;;;3.30;2.22;;;;;;;;;;2025932;29;20041;-61
2023/12/20 04:49:50;;;;;;;8.65;5.05;;;;;;;;;;2026788;29;20032;-62
2023/12/20 04:50:51;;;;;;;7.75;4.00;;;;;;;;;;2026609;29;20051;-61
2023/12/20 04:51:52;;;;;;;6.57;2.72;;;;;;;;;;2026390;29;20044;-61
2023/12/20 04:52:52;;;;;;;7.85;4.65;;;;;;;;;;2026370;29;20374;-61
2023/12/20 04:53:53;;;;;;;7.65;4.38;;;;;;;;;;2026479;29;20048;-61
2023/12/20 04:54:54;;;;;;;9.70;5.10;;;;;;;;;;2025814;29;20048;-61
2023/12/20 04:55:54;;;;;;;10.75;5.28;;;;;;;;;;2026499;29;20044;-61
2023/12/20 04:56:55;;;;;;;6.32;3.28;;;;;;;;;;2026902;29;20043;-61
2023/12/20 04:57:56;;;;;;;9.57;5.35;;;;;;;;;;2026546;29;20036;-62
2023/12/20 04:58:57;;;;;;;6.32;3.67;;;;;;;;;;2026492;29;20469;-63
2023/12/20 04:59:57;;;;;;;7.53;4.45;;;;;;;;;;2025695;29;20083;-61
2023/12/20 05:00:58;;;;;;;7.15;3.85;;;;;;;;;;2026780;29;20041;-62
2023/12/20 05:01:59;;;;;;;10.85;4.15;;;;;;;;;;2026374;29;20055;-62
2023/12/20 05:03:00;;;;;;;6.53;4.25;;;;;;;;;;2026639;29;20441;-61
2023/12/20 05:04:00;;;;;;;7.05;3.72;;;;;;;;;;2026381;29;20040;-61
2023/12/20 05:05:01;;;;;;;9.15;4.40;;;;;;;;;;2026514;29;20393;-61
2023/12/20 05:06:02;;;;;;;5.15;2.50;;;;;;;;;;2026687;29;20044;-61
2023/12/20 05:07:04;;;;;;;7.10;4.55;;;;;;;;;;2026028;29;20044;-62
2023/12/20 05:08:05;;;;;;;11.18;4.93;;;;;;;;;;2026612;29;20044;-61
2023/12/20 05:09:06;;;;;;;7.50;4.50;;;;;;;;;;2026460;29;20392;-61
2023/12/20 05:10:10;;;;;;;8.63;4.72;;;;;;;;;;2026626;29;20083;-61
2023/12/20 05:11:13;;;;;;;5.45;3.60;;;;;;;;;;2026280;29;20044;-61
2023/12/20 05:12:13;;;;;;;8.43;5.07;;;;;;;;;;2025646;29;20048;-62
2023/12/20 05:13:14;;;;;;;6.18;3.50;;;;;;;;;;2026501;29;20036;-62
2023/12/20 05:14:15;;;;;;;6.05;3.55;;;;;;;;;;2026400;29;20168;-62
2023/12/20 05:15:15;;;;;;;4.88;2.35;;;;;;;;;;2025491;29;20127;-62
2023/12/20 05:16:17;;;;;;;8.30;3.92;;;;;;;;;;2026256;29;20041;-62
2023/12/20 05:17:20;;;;;;;5.18;2.50;;;;;;;;;;2026614;29;20051;-62
2023/12/20 05:18:21;;;;;;;4.10;2.33;;;;;;;;;;2026369;29;20047;-63
2023/12/20 05:19:21;;;;;;;3.90;2.20;;;;;;;;;;2018166;29;20543;-63
2023/12/20 05:20:23;;;;;;;6.70;3.70;;;;;;;;;;2018057;29;20029;-62
2023/12/20 05:21:23;;;;;;;4.72;3.17;;;;;;;;;;2026536;29;20043;-62
2023/12/20 05:22:24;;;;;;;6.30;2.83;;;;;;;;;;2026253;29;20055;-63
2023/12/20 05:23:25;;;;;;;5.50;3.30;;;;;;;;;;2026163;29;20446;-63
2023/12/20 05:24:26;;;;;;;5.15;3.20;;;;;;;;;;2025143;29;20041;-62
2023/12/20 05:25:26;;;;;;;3.08;2.05;;;;;;;;;;2026199;29;20047;-62
2023/12/20 05:26:29;;;;;;;4.45;2.83;;;;;;;;;;2026323;29;20039;-62
2023/12/20 05:27:30;;;;;;;4.57;2.88;;;;;;;;;;2017530;29;20041;-62
2023/12/20 05:28:30;;;;;;;6.05;3.13;;;;;;;;;;2017999;29;20037;-62
2023/12/20 05:29:31;;;;;;;6.18;3.20;;;;;;;;;;2026185;29;20040;-62
2023/12/20 05:30:32;;;;;;;7.45;3.13;;;;;;;;;;2026357;29;20040;-62
2023/12/20 05:31:32;;;;;;;4.93;2.90;;;;;;;;;;2026316;29;20044;-62
2023/12/20 05:32:33;;;;;;;4.35;2.60;;;;;;;;;;2026094;29;20393;-62
2023/12/20 05:33:34;;;;;;;4.03;2.63;;;;;;;;;;2026422;29;20037;-62
2023/12/20 05:34:35;;;;;;;3.72;2.22;;;;;;;;;;2026377;29;20044;-62
2023/12/20 05:35:35;;;;;;;5.53;2.38;;;;;;;;;;2026183;29;20032;-64
2023/12/20 05:36:36;;;;;;;6.00;3.10;;;;;;;;;;2025560;29;20374;-61
2023/12/20 05:37:37;;;;;;;6.75;2.40;;;;;;;;;;2025747;29;20048;-62
2023/12/20 05:38:38;;;;;;;4.45;2.28;;;;;;;;;;2026043;29;20041;-62
2023/12/20 05:39:38;;;;;;;3.58;2.17;;;;;;;;;;2026170;29;20044;-62
2023/12/20 05:40:39;;;;;;;7.18;3.45;;;;;;;;;;2026271;29;20059;-62
2023/12/20 05:41:40;;;;;;;6.60;2.95;;;;;;;;;;2026410;29;20466;-61
2023/12/20 05:42:41;;;;;;;5.22;3.20;;;;;;;;;;2025506;29;20053;-62
2023/12/20 05:43:41;;;;;;;5.50;2.78;;;;;;;;;;2026003;29;20048;-62
2023/12/20 05:44:42;;;;;;;4.90;2.05;;;;;;;;;;2025988;29;20127;-62
2023/12/20 05:45:43;;;;;;;4.63;2.67;;;;;;;;;;2026105;29;20040;-62
2023/12/20 05:46:43;;;;;;;5.82;2.25;;;;;;;;;;2025471;29;20060;-62
2023/12/20 05:47:44;;;;;;;4.68;2.22;;;;;;;;;;2026395;29;20040;-61
2023/12/20 05:48:45;;;;;;;4.93;2.60;;;;;;;;;;2025490;29;20481;-62
2023/12/20 05:49:45;;;;;;;6.68;3.30;;;;;;;;;;2026393;29;20051;-62
2023/12/20 05:50:46;;;;;;;4.90;3.20;;;;;;;;;;2026141;29;20033;-62
2023/12/20 05:51:47;;;;;;;5.10;2.65;;;;;;;;;;2026188;29;20037;-62
2023/12/20 05:52:48;;;;;;;4.43;2.75;;;;;;;;;;2026450;29;20103;-62
2023/12/20 05:53:49;;;;;;;3.95;2.50;;;;;;;;;;2026221;29;20060;-62
2023/12/20 05:54:50;;;;;;;6.35;3.08;;;;;;;;;;2026391;29;20040;-61
2023/12/20 05:55:51;;;;;;;4.03;2.10;;;;;;;;;;2025560;29;20064;-62
2023/12/20 05:56:51;;;;;;;5.20;2.70;;;;;;;;;;2027071;29;20056;-61
2023/12/20 05:57:52;;;;;;;5.40;2.50;;;;;;;;;;2027142;29;20477;-61
2023/12/20 05:58:53;;;;;;;3.30;1.75;;;;;;;;;;2027948;29;20067;-61
2023/12/20 05:59:53;;;;;;;4.85;2.47;;;;;;;;;;2027493;29;20045;-62
2023/12/20 06:00:54;;;;;;;7.28;3.22;;;;;;;;;;2027915;29;20049;-62
2023/12/20 06:01:55;;;;;;;4.00;2.20;;;;;;;;;;2027956;29;20045;-61
2023/12/20 06:02:56;;;;;;;4.43;2.10;;;;;;;;;;2027868;29;20377;-62
2023/12/20 06:03:56;;;;;;;5.05;2.65;;;;;;;;;;2027714;29;20045;-62
2023/12/20 06:04:57;;;;;;;5.10;2.80;;;;;;;;;;2028034;29;20184;-62